sensor_id;sensor_type;location;lat;lon;timestamp;pressure;altitude;pressure_sealevel;temperature;humidity
62122;BME280;48108;47.532;19.084;2023-08-24T03:59:34;100473.50;;;21.63;100.00
62122;BME280;48108;47.532;19.084;2023-08-24T04:02:38;100477.47;;;21.72;100.00
62122;BME280;48108;47.532;19.084;2023-08-24T04:05:42;100477.06;;;21.63;100.00
62122;BME280;48108;47.532;19.084;2023-08-24T04:08:45;100477.81;;;21.59;100.00
62122;BME280;48108;47.532;19.084;2023-08-24T04:11:48;100478.16;;;21.62;100.00
62122;BME280;48108;47.532;19.084;2023-08-24T04:14:50;100480.81;;;21.57;100.00
62122;BME280;48108;47.532;19.084;2023-08-24T04:17:55;100478.28;;;21.56;100.00
62122;BME280;48108;47.532;19.084;2023-08-24T04:20:59;100481.19;;;21.49;100.00
62122;BME280;48108;47.532;19.084;2023-08-24T04:24:02;100480.87;;;21.45;100.00
62122;BME280;48108;47.532;19.084;2023-08-24T04:27:05;100487.44;;;21.44;100.00
62122;BME280;48108;47.532;19.084;2023-08-24T04:30:09;100482.47;;;21.41;100.00
62122;BME280;48108;47.532;19.084;2023-08-24T04:33:14;100483.84;;;21.44;100.00
62122;BME280;48108;47.532;19.084;2023-08-24T04:36:17;100492.31;;;21.42;100.00
62122;BME280;48108;47.532;19.084;2023-08-24T04:39:20;100486.78;;;21.54;100.00
62122;BME280;48108;47.532;19.084;2023-08-24T04:42:23;100491.03;;;21.62;100.00
62122;BME280;48108;47.532;19.084;2023-08-24T04:45:25;100492.09;;;21.78;100.00
62122;BME280;48108;47.532;19.084;2023-08-24T04:48:28;100484.47;;;21.80;100.00
62122;BME280;48108;47.532;19.084;2023-08-24T04:51:36;100490.00;;;21.85;100.00
62122;BME280;48108;47.532;19.084;2023-08-24T04:54:39;100490.69;;;21.92;100.00
62122;BME280;48108;47.532;19.084;2023-08-24T04:57:42;100497.91;;;21.98;100.00
62122;BME280;48108;47.532;19.084;2023-08-24T05:00:46;100503.97;;;22.00;100.00
62122;BME280;48108;47.532;19.084;2023-08-24T05:03:48;100504.13;;;22.10;100.00
62122;BME280;48108;47.532;19.084;2023-08-24T05:06:51;100511.72;;;22.20;100.00
62122;BME280;48108;47.532;19.084;2023-08-24T05:09:54;100513.97;;;22.23;100.00
62122;BME280;48108;47.532;19.084;2023-08-24T05:12:57;100512.75;;;22.36;100.00
62122;BME280;48108;47.532;19.084;2023-08-24T05:16:00;100513.84;;;22.35;100.00
62122;BME280;48108;47.532;19.084;2023-08-24T05:19:02;100517.00;;;22.44;100.00
62122;BME280;48108;47.532;19.084;2023-08-24T05:22:05;100510.22;;;22.51;100.00
62122;BME280;48108;47.532;19.084;2023-08-24T05:25:08;100514.00;;;22.67;100.00
62122;BME280;48108;47.532;19.084;2023-08-24T05:28:11;100514.25;;;22.66;100.00
62122;BME280;48108;47.532;19.084;2023-08-24T05:31:14;100517.97;;;22.76;100.00
62122;BME280;48108;47.532;19.084;2023-08-24T05:34:17;100515.91;;;22.89;100.00
62122;BME280;48108;47.532;19.084;2023-08-24T05:37:20;100517.44;;;22.96;100.00
62122;BME280;48108;47.532;19.084;2023-08-24T05:40:23;100514.34;;;23.15;100.00
62122;BME280;48108;47.532;19.084;2023-08-24T05:43:26;100519.91;;;23.25;100.00
62122;BME280;48108;47.532;19.084;2023-08-24T05:46:28;100522.28;;;23.38;100.00
62122;BME280;48108;47.532;19.084;2023-08-24T05:49:32;100524.94;;;23.60;100.00
62122;BME280;48108;47.532;19.084;2023-08-24T05:52:35;100517.91;;;23.69;100.00
62122;BME280;48108;47.532;19.084;2023-08-24T05:55:38;100519.41;;;23.82;100.00
62122;BME280;48108;47.532;19.084;2023-08-24T05:58:41;100528.56;;;23.93;100.00
62122;BME280;48108;47.532;19.084;2023-08-24T06:01:44;100526.66;;;23.93;100.00
62122;BME280;48108;47.532;19.084;2023-08-24T06:04:47;100525.66;;;24.05;100.00
62122;BME280;48108;47.532;19.084;2023-08-24T06:07:49;100516.34;;;24.11;100.00
62122;BME280;48108;47.532;19.084;2023-08-24T06:10:53;100520.78;;;24.17;100.00
62122;BME280;48108;47.532;19.084;2023-08-24T06:13:56;100521.84;;;24.16;100.00
62122;BME280;48108;47.532;19.084;2023-08-24T06:16:59;100525.00;;;24.35;100.00
62122;BME280;48108;47.532;19.084;2023-08-24T06:20:05;100519.59;;;24.45;100.00
62122;BME280;48108;47.532;19.084;2023-08-24T06:23:08;100516.62;;;24.57;100.00
62122;BME280;48108;47.532;19.084;2023-08-24T06:26:11;100518.37;;;24.73;100.00
62122;BME280;48108;47.532;19.084;2023-08-24T06:29:14;100521.19;;;24.83;100.00
62122;BME280;48108;47.532;19.084;2023-08-24T06:32:17;100520.69;;;25.02;100.00
62122;BME280;48108;47.532;19.084;2023-08-24T06:35:20;100523.72;;;25.05;100.00
62122;BME280;48108;47.532;19.084;2023-08-24T06:38:23;100520.19;;;25.15;100.00
62122;BME280;48108;47.532;19.084;2023-08-24T06:41:26;100521.31;;;25.29;100.00
62122;BME280;48108;47.532;19.084;2023-08-24T06:44:28;100519.13;;;25.42;100.00
62122;BME280;48108;47.532;19.084;2023-08-24T06:47:31;100522.19;;;25.45;100.00
62122;BME280;48108;47.532;19.084;2023-08-24T06:50:34;100518.63;;;25.55;100.00
62122;BME280;48108;47.532;19.084;2023-08-24T06:53:39;100519.19;;;25.72;100.00
62122;BME280;48108;47.532;19.084;2023-08-24T06:56:42;100519.75;;;26.00;100.00
62122;BME280;48108;47.532;19.084;2023-08-24T06:59:46;100521.09;;;26.23;100.00
62122;BME280;48108;47.532;19.084;2023-08-24T07:02:49;100522.16;;;26.53;100.00
62122;BME280;48108;47.532;19.084;2023-08-24T07:05:52;100524.41;;;26.51;100.00
62122;BME280;48108;47.532;19.084;2023-08-24T07:08:55;100516.06;;;26.61;100.00
62122;BME280;48108;47.532;19.084;2023-08-24T07:11:58;100525.78;;;26.53;100.00
62122;BME280;48108;47.532;19.084;2023-08-24T07:15:01;100518.28;;;26.64;100.00
62122;BME280;48108;47.532;19.084;2023-08-24T07:18:04;100514.34;;;26.80;100.00
62122;BME280;48108;47.532;19.084;2023-08-24T07:21:08;100516.78;;;26.92;100.00
62122;BME280;48108;47.532;19.084;2023-08-24T07:24:11;100517.03;;;27.01;100.00
62122;BME280;48108;47.532;19.084;2023-08-24T07:27:13;100518.00;;;27.25;100.00
62122;BME280;48108;47.532;19.084;2023-08-24T07:30:16;100510.47;;;27.41;97.51
62122;BME280;48108;47.532;19.084;2023-08-24T07:33:34;100521.19;;;27.48;96.74
62122;BME280;48108;47.532;19.084;2023-08-24T07:36:37;100513.97;;;27.52;95.33
62122;BME280;48108;47.532;19.084;2023-08-24T07:39:40;100517.81;;;27.56;94.56
62122;BME280;48108;47.532;19.084;2023-08-24T07:42:53;100516.66;;;27.62;93.64
62122;BME280;48108;47.532;19.084;2023-08-24T07:45:57;100515.19;;;27.70;93.88
62122;BME280;48108;47.532;19.084;2023-08-24T07:49:00;100515.37;;;27.89;93.03
62122;BME280;48108;47.532;19.084;2023-08-24T07:52:03;100512.69;;;28.08;92.79
62122;BME280;48108;47.532;19.084;2023-08-24T07:55:06;100508.16;;;28.17;93.84
62122;BME280;48108;47.532;19.084;2023-08-24T07:58:09;100512.75;;;28.32;90.96
62122;BME280;48108;47.532;19.084;2023-08-24T08:01:12;100516.84;;;28.34;91.12
62122;BME280;48108;47.532;19.084;2023-08-24T08:04:15;100521.19;;;28.16;88.05
62122;BME280;48108;47.532;19.084;2023-08-24T08:07:18;100521.72;;;28.47;84.50
62122;BME280;48108;47.532;19.084;2023-08-24T08:10:21;100519.16;;;28.56;82.47
62122;BME280;48108;47.532;19.084;2023-08-24T08:13:24;100516.38;;;28.56;80.24
62122;BME280;48108;47.532;19.084;2023-08-24T08:16:27;100529.59;;;28.64;73.23
62122;BME280;48108;47.532;19.084;2023-08-24T08:19:30;100520.72;;;28.62;72.65
62122;BME280;48108;47.532;19.084;2023-08-24T08:22:33;100524.25;;;28.92;72.55
62122;BME280;48108;47.532;19.084;2023-08-24T08:25:40;100527.50;;;28.99;72.43
62122;BME280;48108;47.532;19.084;2023-08-24T08:28:45;100523.78;;;29.09;69.81
62122;BME280;48108;47.532;19.084;2023-08-24T08:31:48;100526.62;;;29.04;65.83
62122;BME280;48108;47.532;19.084;2023-08-24T08:34:51;100534.50;;;29.15;67.27
62122;BME280;48108;47.532;19.084;2023-08-24T08:37:54;100529.13;;;29.43;65.92
62122;BME280;48108;47.532;19.084;2023-08-24T08:41:04;100523.56;;;29.43;67.38
62122;BME280;48108;47.532;19.084;2023-08-24T08:44:09;100526.25;;;29.48;67.64
62122;BME280;48108;47.532;19.084;2023-08-24T08:47:14;100523.72;;;29.52;65.34
62122;BME280;48108;47.532;19.084;2023-08-24T08:50:17;100528.66;;;29.55;63.35
62122;BME280;48108;47.532;19.084;2023-08-24T08:53:21;100521.44;;;29.54;62.16
62122;BME280;48108;47.532;19.084;2023-08-24T08:56:24;100521.09;;;29.42;62.60
62122;BME280;48108;47.532;19.084;2023-08-24T08:59:28;100518.06;;;29.57;60.72
62122;BME280;48108;47.532;19.084;2023-08-24T09:02:34;100516.91;;;29.96;63.61
62122;BME280;48108;47.532;19.084;2023-08-24T09:05:37;100505.56;;;29.78;62.94
62122;BME280;48108;47.532;19.084;2023-08-24T09:08:40;100504.06;;;29.67;61.86
62122;BME280;48108;47.532;19.084;2023-08-24T09:11:43;100503.75;;;29.69;64.31
62122;BME280;48108;47.532;19.084;2023-08-24T09:14:49;100505.34;;;29.75;63.11
62122;BME280;48108;47.532;19.084;2023-08-24T09:17:53;100497.97;;;29.98;61.18
62122;BME280;48108;47.532;19.084;2023-08-24T09:20:57;100500.75;;;29.84;62.15
62122;BME280;48108;47.532;19.084;2023-08-24T09:24:00;100500.03;;;29.92;61.93
62122;BME280;48108;47.532;19.084;2023-08-24T09:27:16;100497.94;;;30.17;61.88
62122;BME280;48108;47.532;19.084;2023-08-24T09:30:19;100493.75;;;30.47;63.61
62122;BME280;48108;47.532;19.084;2023-08-24T09:33:22;100488.22;;;30.61;60.33
62122;BME280;48108;47.532;19.084;2023-08-24T09:36:31;100487.34;;;30.74;60.88
62122;BME280;48108;47.532;19.084;2023-08-24T09:39:34;100485.84;;;30.82;58.36
62122;BME280;48108;47.532;19.084;2023-08-24T09:42:41;100485.91;;;30.77;60.04
62122;BME280;48108;47.532;19.084;2023-08-24T09:45:55;100476.25;;;31.02;56.31
62122;BME280;48108;47.532;19.084;2023-08-24T09:48:58;100472.72;;;31.10;58.74
62122;BME280;48108;47.532;19.084;2023-08-24T09:52:06;100470.84;;;31.19;56.92
62122;BME280;48108;47.532;19.084;2023-08-24T09:55:09;100473.19;;;31.26;52.89
62122;BME280;48108;47.532;19.084;2023-08-24T09:58:15;100471.72;;;31.28;50.63
62122;BME280;48108;47.532;19.084;2023-08-24T10:01:19;100475.44;;;31.37;50.30
62122;BME280;48108;47.532;19.084;2023-08-24T10:04:24;100466.34;;;31.68;52.44
62122;BME280;48108;47.532;19.084;2023-08-24T10:07:27;100474.41;;;31.78;50.87
62122;BME280;48108;47.532;19.084;2023-08-24T10:10:31;100478.84;;;32.02;51.64
62122;BME280;48108;47.532;19.084;2023-08-24T10:13:59;100474.37;;;32.32;54.36
62122;BME280;48108;47.532;19.084;2023-08-24T10:17:03;100482.47;;;32.11;50.33
62122;BME280;48108;47.532;19.084;2023-08-24T10:20:07;100468.41;;;32.16;50.66
62122;BME280;48108;47.532;19.084;2023-08-24T10:23:14;100467.19;;;32.40;50.40
62122;BME280;48108;47.532;19.084;2023-08-24T10:26:18;100471.59;;;32.81;52.88
62122;BME280;48108;47.532;19.084;2023-08-24T10:29:23;100463.75;;;32.91;48.06
62122;BME280;48108;47.532;19.084;2023-08-24T10:32:26;100457.03;;;32.92;47.08
62122;BME280;48108;47.532;19.084;2023-08-24T10:35:31;100452.09;;;32.81;44.64
62122;BME280;48108;47.532;19.084;2023-08-24T10:38:39;100441.09;;;32.93;42.75
62122;BME280;48108;47.532;19.084;2023-08-24T10:41:47;100437.03;;;33.25;43.25
62122;BME280;48108;47.532;19.084;2023-08-24T10:44:50;100428.00;;;33.63;41.60
62122;BME280;48108;47.532;19.084;2023-08-24T10:47:53;100424.22;;;33.59;39.42
62122;BME280;48108;47.532;19.084;2023-08-24T10:54:30;100429.16;;;33.45;38.28
62122;BME280;48108;47.532;19.084;2023-08-24T10:57:38;100428.81;;;33.37;39.49
62122;BME280;48108;47.532;19.084;2023-08-24T11:00:48;100432.12;;;33.57;38.65
62122;BME280;48108;47.532;19.084;2023-08-24T11:03:55;100431.47;;;33.51;38.22
62122;BME280;48108;47.532;19.084;2023-08-24T11:07:00;100428.38;;;34.08;37.73
62122;BME280;48108;47.532;19.084;2023-08-24T11:10:11;100423.19;;;34.66;36.28
62122;BME280;48108;47.532;19.084;2023-08-24T11:13:17;100424.69;;;35.60;36.43
62122;BME280;48108;47.532;19.084;2023-08-24T11:16:42;100428.69;;;36.29;35.68
62122;BME280;48108;47.532;19.084;2023-08-24T11:19:53;100426.00;;;36.32;34.18
62122;BME280;48108;47.532;19.084;2023-08-24T11:22:56;100425.66;;;36.46;31.83
62122;BME280;48108;47.532;19.084;2023-08-24T11:26:01;100424.84;;;36.58;32.23
62122;BME280;48108;47.532;19.084;2023-08-24T11:29:07;100418.94;;;37.00;30.16
62122;BME280;48108;47.532;19.084;2023-08-24T11:32:10;100417.53;;;37.78;29.43
62122;BME280;48108;47.532;19.084;2023-08-24T11:35:13;100417.59;;;37.38;30.05
62122;BME280;48108;47.532;19.084;2023-08-24T11:38:16;100413.66;;;37.39;29.12
62122;BME280;48108;47.532;19.084;2023-08-24T11:41:19;100403.88;;;38.24;27.90
62122;BME280;48108;47.532;19.084;2023-08-24T11:44:24;100397.41;;;38.75;28.30
62122;BME280;48108;47.532;19.084;2023-08-24T11:47:31;100399.06;;;40.46;24.91
62122;BME280;48108;47.532;19.084;2023-08-24T11:50:34;100398.00;;;41.89;23.65
62122;BME280;48108;47.532;19.084;2023-08-24T11:53:41;100399.41;;;41.68;23.90
62122;BME280;48108;47.532;19.084;2023-08-24T11:56:44;100399.69;;;42.56;22.69
62122;BME280;48108;47.532;19.084;2023-08-24T11:59:50;100394.09;;;42.67;22.33
62122;BME280;48108;47.532;19.084;2023-08-24T12:02:53;100398.56;;;43.80;20.96
62122;BME280;48108;47.532;19.084;2023-08-24T12:06:00;100393.22;;;43.39;22.04
62122;BME280;48108;47.532;19.084;2023-08-24T12:09:06;100394.44;;;43.45;21.13
62122;BME280;48108;47.532;19.084;2023-08-24T12:12:16;100381.44;;;44.77;20.76
62122;BME280;48108;47.532;19.084;2023-08-24T12:15:21;100390.34;;;44.83;19.98
62122;BME280;48108;47.532;19.084;2023-08-24T12:18:24;100387.97;;;44.56;20.52
62122;BME280;48108;47.532;19.084;2023-08-24T12:21:27;100382.66;;;44.69;19.67
62122;BME280;48108;47.532;19.084;2023-08-24T12:24:32;100380.97;;;44.93;19.27
62122;BME280;48108;47.532;19.084;2023-08-24T12:27:34;100375.34;;;44.71;19.12
62122;BME280;48108;47.532;19.084;2023-08-24T12:30:51;100369.84;;;45.83;18.10
62122;BME280;48108;47.532;19.084;2023-08-24T12:34:14;100360.66;;;45.64;19.31
62122;BME280;48108;47.532;19.084;2023-08-24T12:37:17;100353.56;;;46.70;18.14
62122;BME280;48108;47.532;19.084;2023-08-24T12:40:20;100367.06;;;45.79;17.50
62122;BME280;48108;47.532;19.084;2023-08-24T12:43:25;100360.81;;;45.95;17.45
62122;BME280;48108;47.532;19.084;2023-08-24T12:46:28;100358.34;;;46.76;17.10
62122;BME280;48108;47.532;19.084;2023-08-24T12:49:31;100352.16;;;47.16;16.95
62122;BME280;48108;47.532;19.084;2023-08-24T12:52:34;100341.16;;;46.11;17.36
62122;BME280;48108;47.532;19.084;2023-08-24T12:55:39;100328.75;;;47.55;16.99
62122;BME280;48108;47.532;19.084;2023-08-24T12:58:44;100337.62;;;48.71;15.34
62122;BME280;48108;47.532;19.084;2023-08-24T13:01:47;100333.25;;;47.76;15.73
62122;BME280;48108;47.532;19.084;2023-08-24T13:04:50;100331.91;;;48.91;15.79
62122;BME280;48108;47.532;19.084;2023-08-24T13:07:53;100327.16;;;49.37;15.65
62122;BME280;48108;47.532;19.084;2023-08-24T13:10:57;100328.84;;;49.35;15.06
62122;BME280;48108;47.532;19.084;2023-08-24T13:14:00;100328.84;;;49.35;15.00
62122;BME280;48108;47.532;19.084;2023-08-24T13:17:03;100318.34;;;49.64;14.75
62122;BME280;48108;47.532;19.084;2023-08-24T13:20:06;100312.31;;;47.63;16.33
62122;BME280;48108;47.532;19.084;2023-08-24T13:23:10;100309.69;;;48.19;16.38
62122;BME280;48108;47.532;19.084;2023-08-24T13:26:20;100307.59;;;49.68;14.97
62122;BME280;48108;47.532;19.084;2023-08-24T13:29:23;100308.72;;;49.22;15.63
62122;BME280;48108;47.532;19.084;2023-08-24T13:32:26;100303.84;;;48.86;15.46
62122;BME280;48108;47.532;19.084;2023-08-24T13:35:29;100303.56;;;48.61;15.50
62122;BME280;48108;47.532;19.084;2023-08-24T13:38:32;100309.66;;;48.99;15.18
62122;BME280;48108;47.532;19.084;2023-08-24T13:41:35;100299.97;;;47.19;16.17
62122;BME280;48108;47.532;19.084;2023-08-24T13:44:38;100296.09;;;47.83;15.59
62122;BME280;48108;47.532;19.084;2023-08-24T13:47:41;100294.34;;;47.39;15.94
62122;BME280;48108;47.532;19.084;2023-08-24T13:50:51;100289.72;;;46.94;16.42
62122;BME280;48108;47.532;19.084;2023-08-24T13:53:54;100287.03;;;47.38;16.42
62122;BME280;48108;47.532;19.084;2023-08-24T13:56:57;100284.13;;;46.87;16.63
62122;BME280;48108;47.532;19.084;2023-08-24T14:00:03;100287.63;;;46.98;17.62
62122;BME280;48108;47.532;19.084;2023-08-24T14:03:13;100283.53;;;46.38;16.01
62122;BME280;48108;47.532;19.084;2023-08-24T14:06:16;100289.34;;;44.71;17.64
62122;BME280;48108;47.532;19.084;2023-08-24T14:09:19;100280.63;;;44.11;18.74
62122;BME280;48108;47.532;19.084;2023-08-24T14:12:22;100281.13;;;41.33;21.13
62122;BME280;48108;47.532;19.084;2023-08-24T14:15:24;100280.75;;;40.07;22.24
62122;BME280;48108;47.532;19.084;2023-08-24T14:18:27;100282.16;;;38.43;24.33
62122;BME280;48108;47.532;19.084;2023-08-24T14:21:31;100272.41;;;37.86;25.45
62122;BME280;48108;47.532;19.084;2023-08-24T14:24:37;100270.50;;;36.98;25.59
62122;BME280;48108;47.532;19.084;2023-08-24T14:27:40;100273.22;;;36.26;27.03
62122;BME280;48108;47.532;19.084;2023-08-24T14:30:52;100268.94;;;35.92;28.62
62122;BME280;48108;47.532;19.084;2023-08-24T14:33:55;100280.72;;;35.73;28.48
62122;BME280;48108;47.532;19.084;2023-08-24T14:36:58;100266.50;;;35.08;29.35
62122;BME280;48108;47.532;19.084;2023-08-24T14:40:01;100273.78;;;34.67;31.37
62122;BME280;48108;47.532;19.084;2023-08-24T14:43:06;100270.16;;;34.46;31.08
62122;BME280;48108;47.532;19.084;2023-08-24T14:46:09;100265.22;;;34.22;31.09
62122;BME280;48108;47.532;19.084;2023-08-24T14:49:12;100270.25;;;34.07;32.42
62122;BME280;48108;47.532;19.084;2023-08-24T14:52:20;100274.09;;;33.94;31.71
62122;BME280;48108;47.532;19.084;2023-08-24T14:55:23;100255.34;;;33.74;31.48
62122;BME280;48108;47.532;19.084;2023-08-24T14:58:27;100266.88;;;33.63;31.68
62122;BME280;48108;47.532;19.084;2023-08-24T15:01:30;100259.22;;;33.43;32.20
62122;BME280;48108;47.532;19.084;2023-08-24T15:04:32;100260.44;;;33.25;33.95
62122;BME280;48108;47.532;19.084;2023-08-24T15:19:08;100277.19;;;32.20;34.12
62122;BME280;48108;47.532;19.084;2023-08-24T15:22:12;100266.88;;;32.12;34.06
62122;BME280;48108;47.532;19.084;2023-08-24T15:25:14;100262.59;;;32.06;33.91
62122;BME280;48108;47.532;19.084;2023-08-24T15:28:17;100260.87;;;31.88;33.79
62122;BME280;48108;47.532;19.084;2023-08-24T15:31:20;100269.38;;;31.74;34.86
62122;BME280;48108;47.532;19.084;2023-08-24T15:34:23;100268.38;;;31.70;34.85
62122;BME280;48108;47.532;19.084;2023-08-24T15:37:26;100268.03;;;31.62;34.77
62122;BME280;48108;47.532;19.084;2023-08-24T15:40:30;100262.72;;;31.52;35.18
62122;BME280;48108;47.532;19.084;2023-08-24T15:43:34;100267.37;;;31.34;35.83
62122;BME280;48108;47.532;19.084;2023-08-24T15:46:37;100260.44;;;31.23;36.45
62122;BME280;48108;47.532;19.084;2023-08-24T15:49:40;100252.22;;;31.18;36.05
62122;BME280;48108;47.532;19.084;2023-08-24T15:52:43;100254.81;;;31.14;36.54
62122;BME280;48108;47.532;19.084;2023-08-24T15:55:45;100255.75;;;31.01;36.98
62122;BME280;48108;47.532;19.084;2023-08-24T15:58:48;100246.31;;;30.88;37.18
